createdAt,value
2018-05-14T00:00:39.922Z,16.85
2018-05-14T00:03:07.547Z,16.87
2018-05-14T00:05:35.149Z,16.83
2018-05-14T00:08:03.100Z,16.89
2018-05-14T00:10:30.704Z,16.83
2018-05-14T00:12:58.304Z,16.97
2018-05-14T00:15:25.933Z,16.98
2018-05-14T00:17:53.534Z,17.09
2018-05-14T00:20:21.151Z,17.04
2018-05-14T00:22:48.749Z,16.95
2018-05-14T00:25:16.389Z,16.87
2018-05-14T00:27:43.977Z,16.93
2018-05-14T00:30:11.570Z,17.04
2018-05-14T00:32:39.209Z,16.79
2018-05-14T00:35:06.849Z,16.73
2018-05-14T00:37:34.478Z,16.60
2018-05-14T00:40:02.067Z,16.60
2018-05-14T00:42:29.703Z,16.71
2018-05-14T00:44:57.302Z,16.68
2018-05-14T00:47:24.902Z,16.68
2018-05-14T00:49:52.505Z,16.63
2018-05-14T00:52:20.105Z,16.71
2018-05-14T00:54:59.373Z,16.69
2018-05-14T00:57:26.953Z,16.84
2018-05-14T00:59:54.758Z,16.74
2018-05-14T01:02:22.351Z,16.71
2018-05-14T01:04:50.777Z,16.71
2018-05-14T01:07:18.389Z,16.74
2018-05-14T01:09:46.013Z,16.73
2018-05-14T01:12:13.625Z,16.65
2018-05-14T01:14:41.218Z,16.61
2018-05-14T01:17:08.844Z,16.62
2018-05-14T01:19:36.443Z,16.62
2018-05-14T01:22:04.237Z,16.65
2018-05-14T01:24:31.830Z,16.66
2018-05-14T01:26:59.520Z,16.72
2018-05-14T01:29:27.141Z,16.60
2018-05-14T01:31:54.733Z,16.68
2018-05-14T01:34:22.343Z,16.66
2018-05-14T01:36:49.937Z,16.60
2018-05-14T01:39:17.980Z,16.59
2018-05-14T01:41:45.567Z,16.64
2018-05-14T01:44:13.200Z,16.57
2018-05-14T01:46:40.820Z,16.67
2018-05-14T01:49:08.409Z,16.72
2018-05-14T01:51:36.038Z,16.67
2018-05-14T01:54:03.684Z,16.54
2018-05-14T01:56:31.825Z,16.62
2018-05-14T01:58:59.411Z,16.72
2018-05-14T02:01:26.997Z,16.58
2018-05-14T02:03:54.614Z,16.62
2018-05-14T02:06:22.202Z,16.67
2018-05-14T02:08:49.854Z,16.57
2018-05-14T02:11:17.457Z,16.64
2018-05-14T02:13:45.110Z,16.68
2018-05-14T02:16:12.706Z,16.70
2018-05-14T02:18:40.297Z,16.73
2018-05-14T02:21:07.915Z,16.76
2018-05-14T02:23:35.513Z,16.69
2018-05-14T02:26:03.141Z,16.79
2018-05-14T02:28:30.736Z,16.84
2018-05-14T02:30:58.345Z,16.74
2018-05-14T02:33:25.971Z,16.76
2018-05-14T02:35:53.575Z,16.80
2018-05-14T02:38:21.371Z,16.79
2018-05-14T02:40:48.968Z,16.82
2018-05-14T02:43:16.558Z,16.91
2018-05-14T02:45:44.183Z,16.93
2018-05-14T02:48:11.782Z,16.90
2018-05-14T02:50:39.407Z,16.89
2018-05-14T02:53:07.012Z,16.91
2018-05-14T02:55:34.913Z,16.84
2018-05-14T02:58:02.509Z,16.89
2018-05-14T03:00:30.113Z,16.88
2018-05-14T03:02:57.733Z,17.09
2018-05-14T03:05:25.313Z,16.94
2018-05-14T03:07:52.958Z,16.91
2018-05-14T03:10:20.552Z,16.94
2018-05-14T03:12:48.344Z,16.92
2018-05-14T03:15:15.941Z,16.85
2018-05-14T03:17:43.533Z,16.84
2018-05-14T03:20:11.153Z,16.88
2018-05-14T03:22:38.776Z,16.76
2018-05-14T03:25:06.417Z,16.81
2018-05-14T03:27:34.013Z,16.76
2018-05-14T03:30:01.782Z,16.83
2018-05-14T03:32:29.461Z,16.81
2018-05-14T03:34:57.159Z,16.83
2018-05-14T03:37:24.841Z,16.80
2018-05-14T03:39:52.504Z,16.90
2018-05-14T03:42:20.125Z,17.16
2018-05-14T03:44:47.746Z,17.00
2018-05-14T03:47:16.036Z,16.91
2018-05-14T03:49:43.642Z,16.89
2018-05-14T03:52:11.275Z,16.87
2018-05-14T03:54:38.913Z,16.95
2018-05-14T03:57:06.510Z,16.95
2018-05-14T03:59:45.811Z,16.99
2018-05-14T04:02:25.241Z,16.98
2018-05-14T04:05:04.658Z,17.01
2018-05-14T04:07:32.269Z,17.12
2018-05-14T04:09:59.914Z,17.03
2018-05-14T04:12:27.508Z,16.98
2018-05-14T04:14:55.100Z,16.94
2018-05-14T04:17:22.725Z,17.03
2018-05-14T04:19:50.329Z,17.08
2018-05-14T04:22:17.973Z,17.14
2018-05-14T04:24:45.578Z,17.15
2018-05-14T04:27:13.194Z,17.17
2018-05-14T04:29:40.913Z,17.34
2018-05-14T04:32:08.542Z,17.35
2018-05-14T04:34:36.133Z,17.35
2018-05-14T04:37:03.774Z,17.33
2018-05-14T04:39:31.373Z,17.27
2018-05-14T04:41:58.997Z,17.29
2018-05-14T04:44:26.581Z,17.22
2018-05-14T04:46:54.450Z,17.31
2018-05-14T04:49:22.053Z,17.51
2018-05-14T04:51:49.651Z,17.45
2018-05-14T04:54:17.341Z,17.47
2018-05-14T04:56:45.004Z,17.50
2018-05-14T04:59:12.697Z,17.46
2018-05-14T05:01:40.266Z,17.62
2018-05-14T05:04:07.954Z,17.56
2018-05-14T05:06:35.549Z,17.60
2018-05-14T05:09:03.171Z,17.51
2018-05-14T05:11:30.923Z,17.49
2018-05-14T05:13:58.487Z,17.44
2018-05-14T05:16:26.099Z,17.35
2018-05-14T05:18:53.776Z,17.46
2018-05-14T05:21:21.423Z,17.48
2018-05-14T05:23:49.046Z,17.51
2018-05-14T05:26:16.632Z,17.60
2018-05-14T05:28:44.241Z,17.54
2018-05-14T05:31:11.843Z,17.63
2018-05-14T05:33:39.735Z,17.64
2018-05-14T05:36:07.330Z,17.69
2018-05-14T05:38:34.929Z,17.75
2018-05-14T05:41:02.547Z,17.62
2018-05-14T05:43:30.137Z,17.66
2018-05-14T05:45:57.779Z,17.69
2018-05-14T05:48:25.379Z,17.68
2018-05-14T05:50:53.219Z,17.65
2018-05-14T05:53:20.841Z,17.45
2018-05-14T05:55:48.491Z,17.53
2018-05-14T05:58:16.128Z,17.68
2018-05-14T06:00:43.721Z,17.65
2018-05-14T06:03:11.341Z,17.76
2018-05-14T06:05:38.946Z,17.78
2018-05-14T06:08:06.689Z,17.82
2018-05-14T06:10:34.425Z,17.88
2018-05-14T06:13:02.037Z,17.91
2018-05-14T06:15:29.696Z,17.82
2018-05-14T06:17:57.295Z,17.69
2018-05-14T06:20:24.915Z,17.81
2018-05-14T06:22:52.576Z,17.95
2018-05-14T06:25:20.332Z,17.84
2018-05-14T06:27:48.019Z,17.76
2018-05-14T06:30:15.603Z,17.88
2018-05-14T06:32:43.210Z,17.80
2018-05-14T06:35:10.830Z,17.88
2018-05-14T06:37:38.447Z,18.09
2018-05-14T06:40:06.057Z,18.17
2018-05-14T06:42:33.695Z,18.24
2018-05-14T06:45:01.314Z,18.26
2018-05-14T06:47:28.920Z,18.17
2018-05-14T06:49:56.594Z,18.30
2018-05-14T06:52:24.162Z,18.33
2018-05-14T06:54:51.792Z,18.35
2018-05-14T06:57:19.388Z,18.48
2018-05-14T06:59:46.989Z,18.48
2018-05-14T07:02:14.617Z,18.61
2018-05-14T07:04:42.262Z,18.57
2018-05-14T07:07:10.090Z,18.70
2018-05-14T07:09:37.757Z,18.78
2018-05-14T07:12:05.353Z,18.77
2018-05-14T07:14:32.969Z,18.87
2018-05-14T07:17:00.566Z,18.90
2018-05-14T07:19:28.183Z,18.99
2018-05-14T07:21:55.801Z,19.10
2018-05-14T07:24:23.621Z,19.22
2018-05-14T07:26:51.212Z,19.33
2018-05-14T07:29:18.809Z,19.37
2018-05-14T07:31:46.530Z,19.50
2018-05-14T07:34:14.152Z,19.46
2018-05-14T07:36:41.787Z,19.60
2018-05-14T07:39:09.383Z,19.72
2018-05-14T07:41:37.041Z,19.74
2018-05-14T07:44:04.629Z,19.78
2018-05-14T07:46:32.225Z,19.85
2018-05-14T07:48:59.944Z,19.89
2018-05-14T07:51:27.490Z,20.04
2018-05-14T07:53:55.100Z,20.10
2018-05-14T07:56:22.717Z,20.27
2018-05-14T07:58:50.618Z,20.32
2018-05-14T08:01:18.263Z,20.34
2018-05-14T08:03:45.858Z,20.36
2018-05-14T08:06:13.503Z,20.36
2018-05-14T08:08:41.455Z,20.30
2018-05-14T08:11:09.409Z,20.39
2018-05-14T08:13:37.001Z,20.54
2018-05-14T08:16:04.839Z,20.73
2018-05-14T08:18:32.429Z,20.59
2018-05-14T08:21:00.258Z,20.72
2018-05-14T08:23:27.889Z,20.68
2018-05-14T08:25:55.502Z,20.56
2018-05-14T08:28:23.112Z,20.72
2018-05-14T08:30:50.698Z,20.66
2018-05-14T08:33:18.579Z,20.75
2018-05-14T08:35:46.173Z,20.82
2018-05-14T08:38:14.084Z,20.91
2018-05-14T08:40:41.900Z,21.08
2018-05-14T08:43:09.504Z,21.03
2018-05-14T08:45:37.127Z,21.08
2018-05-14T08:48:04.812Z,21.17
2018-05-14T08:50:32.635Z,21.23
2018-05-14T08:53:00.228Z,21.40
2018-05-14T08:55:27.811Z,21.59
2018-05-14T08:57:55.588Z,22.02
2018-05-14T09:00:23.200Z,22.26
2018-05-14T09:02:50.817Z,22.06
2018-05-14T09:05:18.419Z,22.12
2018-05-14T09:07:46.486Z,22.33
2018-05-14T09:10:14.078Z,22.17
2018-05-14T09:12:41.658Z,22.25
2018-05-14T09:15:09.270Z,22.33
2018-05-14T09:17:36.854Z,22.42
2018-05-14T09:20:04.477Z,22.33
2018-05-14T09:22:32.074Z,22.25
2018-05-14T09:24:59.927Z,22.19
2018-05-14T09:27:27.508Z,22.10
2018-05-14T09:29:55.104Z,21.98
2018-05-14T09:32:22.722Z,21.83
2018-05-14T09:34:50.337Z,21.70
2018-05-14T09:37:17.967Z,21.71
2018-05-14T09:39:45.568Z,21.83
2018-05-14T09:42:13.204Z,21.98
2018-05-14T09:44:40.792Z,22.13
2018-05-14T09:47:08.386Z,22.44
2018-05-14T09:49:36.013Z,22.73
2018-05-14T09:52:03.604Z,23.02
2018-05-14T09:54:31.232Z,23.11
2018-05-14T09:56:58.829Z,23.17
2018-05-14T09:59:26.588Z,23.18
2018-05-14T10:01:54.194Z,23.34
2018-05-14T10:04:21.841Z,23.54
2018-05-14T10:06:49.516Z,23.73
2018-05-14T10:09:17.104Z,23.98
2018-05-14T10:11:44.701Z,24.18
2018-05-14T10:14:12.436Z,24.28
2018-05-14T10:16:40.062Z,24.31
2018-05-14T10:19:07.667Z,24.04
2018-05-14T10:21:35.363Z,23.88
2018-05-14T10:24:02.977Z,23.91
2018-05-14T10:26:30.577Z,23.90
2018-05-14T10:28:58.203Z,23.89
2018-05-14T10:31:25.815Z,24.04
2018-05-14T10:33:53.658Z,24.05
2018-05-14T10:36:21.251Z,24.22
2018-05-14T10:38:48.833Z,24.27
2018-05-14T10:41:16.433Z,24.21
2018-05-14T10:43:44.034Z,24.33
2018-05-14T10:46:11.664Z,24.51
2018-05-14T10:48:39.269Z,24.61
2018-05-14T10:51:07.097Z,24.50
2018-05-14T10:53:34.693Z,24.53
2018-05-14T10:56:02.313Z,24.50
2018-05-14T10:58:30.141Z,24.42
2018-05-14T11:00:57.725Z,24.61
2018-05-14T11:03:25.357Z,24.83
2018-05-14T11:05:53.196Z,24.87
2018-05-14T11:08:21.090Z,24.86
2018-05-14T11:10:48.711Z,24.85
2018-05-14T11:13:16.679Z,24.85
2018-05-14T11:15:44.343Z,24.95
2018-05-14T11:18:12.100Z,25.02
2018-05-14T11:20:39.716Z,24.89
2018-05-14T11:23:07.596Z,24.88
2018-05-14T11:25:35.813Z,25.01
2018-05-14T11:28:03.392Z,25.23
2018-05-14T11:30:30.973Z,25.59
2018-05-14T11:32:58.702Z,25.55
2018-05-14T11:35:26.381Z,25.57
2018-05-14T11:37:53.944Z,25.95
2018-05-14T11:40:22.078Z,26.13
2018-05-14T11:42:50.039Z,26.23
2018-05-14T11:45:18.111Z,25.87
2018-05-14T11:47:45.794Z,25.38
2018-05-14T11:50:13.398Z,25.39
2018-05-14T11:52:40.982Z,25.17
2018-05-14T11:55:08.703Z,24.66
2018-05-14T11:57:36.301Z,24.51
2018-05-14T12:00:04.474Z,24.26
2018-05-14T12:02:32.078Z,24.20
2018-05-14T12:04:59.682Z,24.24
2018-05-14T12:07:27.298Z,24.21
2018-05-14T12:09:54.889Z,24.21
2018-05-14T12:12:22.627Z,24.19
2018-05-14T12:14:50.222Z,24.22
2018-05-14T12:17:17.898Z,24.14
2018-05-14T12:19:45.490Z,24.24
2018-05-14T12:22:13.178Z,24.30
2018-05-14T12:24:40.779Z,24.42
2018-05-14T12:27:08.751Z,24.39
2018-05-14T12:29:36.368Z,24.33
2018-05-14T12:32:04.062Z,24.01
2018-05-14T12:34:31.790Z,23.68
2018-05-14T12:36:59.570Z,23.53
2018-05-14T12:39:27.575Z,23.51
2018-05-14T12:41:55.303Z,23.21
2018-05-14T12:44:22.877Z,23.25
2018-05-14T12:46:50.486Z,23.29
2018-05-14T12:49:21.030Z,23.27
2018-05-14T12:51:49.196Z,23.43
2018-05-14T12:54:16.798Z,24.06
2018-05-14T12:56:44.397Z,24.81
2018-05-14T12:59:12.007Z,25.61
2018-05-14T13:01:39.607Z,26.51
2018-05-14T13:04:07.225Z,27.37
2018-05-14T13:06:34.816Z,27.97
2018-05-14T13:09:02.461Z,28.78
2018-05-14T13:11:30.055Z,29.61
2018-05-14T13:13:57.678Z,30.57
2018-05-14T13:16:25.303Z,30.89
2018-05-14T13:18:52.889Z,31.71
2018-05-14T13:21:20.508Z,32.13
2018-05-14T13:23:48.094Z,32.89
2018-05-14T13:26:15.895Z,32.86
2018-05-14T13:28:43.505Z,32.99
2018-05-14T13:31:11.116Z,33.15
2018-05-14T13:33:38.722Z,33.62
2018-05-14T13:36:06.317Z,33.77
2018-05-14T13:38:34.459Z,34.50
2018-05-14T13:41:02.062Z,33.72
2018-05-14T13:43:29.660Z,33.90
2018-05-14T13:45:57.265Z,33.80
2018-05-14T13:48:24.872Z,33.80
2018-05-14T13:50:52.514Z,33.83
2018-05-14T13:53:20.365Z,34.08
2018-05-14T13:55:47.987Z,34.24
2018-05-14T13:58:15.609Z,34.00
2018-05-14T14:00:43.194Z,33.57
2018-05-14T14:03:10.830Z,33.13
2018-05-14T14:05:38.415Z,32.26
2018-05-14T14:08:06.098Z,31.46
2018-05-14T14:10:33.777Z,31.10
2018-05-14T14:13:01.702Z,30.97
2018-05-14T14:15:29.305Z,30.24
2018-05-14T14:17:56.940Z,29.55
2018-05-14T14:20:24.655Z,29.23
2018-05-14T14:22:52.258Z,28.99
2018-05-14T14:25:20.121Z,28.53
2018-05-14T14:27:47.729Z,28.59
2018-05-14T14:30:15.323Z,28.29
2018-05-14T14:32:42.989Z,27.77
2018-05-14T14:35:10.584Z,27.37
2018-05-14T14:37:38.212Z,27.24
2018-05-14T14:40:05.847Z,26.87
2018-05-14T14:42:33.511Z,26.73
2018-05-14T14:45:01.126Z,26.65
2018-05-14T14:47:28.730Z,26.76
2018-05-14T14:49:56.389Z,26.66
2018-05-14T14:52:23.981Z,26.76
2018-05-14T14:54:51.689Z,26.83
2018-05-14T14:57:19.279Z,26.66
2018-05-14T14:59:47.082Z,26.65
2018-05-14T15:02:14.705Z,26.44
2018-05-14T15:04:42.332Z,26.54
2018-05-14T15:07:10.170Z,26.28
2018-05-14T15:09:37.754Z,25.70
2018-05-14T15:12:05.379Z,25.74
2018-05-14T15:14:32.985Z,25.46
2018-05-14T15:17:00.921Z,25.31
2018-05-14T15:19:28.533Z,25.36
2018-05-14T15:21:56.127Z,25.19
2018-05-14T15:24:23.755Z,25.06
2018-05-14T15:26:51.361Z,24.76
2018-05-14T15:29:18.974Z,24.80
2018-05-14T15:31:46.564Z,24.51
2018-05-14T15:34:14.532Z,24.74
2018-05-14T15:36:42.120Z,24.56
2018-05-14T15:39:09.725Z,24.44
2018-05-14T15:41:37.378Z,24.56
2018-05-14T15:44:04.977Z,24.63
2018-05-14T15:46:32.591Z,24.59
2018-05-14T15:49:00.205Z,24.58
2018-05-14T15:51:27.815Z,24.38
2018-05-14T15:53:55.439Z,24.15
2018-05-14T15:56:23.096Z,24.01
2018-05-14T15:58:50.657Z,24.02
2018-05-14T16:01:18.245Z,23.90
2018-05-14T16:03:45.877Z,23.77
2018-05-14T16:06:13.481Z,23.74
2018-05-14T16:08:41.082Z,23.85
2018-05-14T16:11:08.697Z,23.88
2018-05-14T16:13:36.291Z,24.17
2018-05-14T16:16:03.976Z,24.38
2018-05-14T16:18:31.575Z,24.52
2018-05-14T16:21:00.836Z,24.58
2018-05-14T16:23:28.596Z,24.60
2018-05-14T16:25:56.228Z,24.31
2018-05-14T16:28:23.903Z,24.19
2018-05-14T16:30:51.615Z,24.29
2018-05-14T16:33:19.367Z,24.19
2018-05-14T16:35:46.941Z,24.08
2018-05-14T16:38:14.562Z,24.00
2018-05-14T16:40:42.193Z,24.03
2018-05-14T16:43:09.785Z,23.91
2018-05-14T16:45:37.493Z,24.07
2018-05-14T16:48:05.118Z,23.93
2018-05-14T16:50:32.718Z,23.89
2018-05-14T16:53:00.571Z,23.93
2018-05-14T16:55:28.177Z,24.05
2018-05-14T16:57:55.881Z,24.04
2018-05-14T17:00:23.452Z,24.00
2018-05-14T17:02:51.070Z,23.95
2018-05-14T17:05:18.707Z,24.06
2018-05-14T17:07:46.351Z,24.14
2018-05-14T17:10:13.976Z,24.00
2018-05-14T17:12:41.608Z,24.14
2018-05-14T17:15:09.269Z,24.19
2018-05-14T17:17:37.068Z,24.50
2018-05-14T17:20:04.663Z,24.77
2018-05-14T17:22:32.262Z,24.91
2018-05-14T17:24:59.887Z,24.85
2018-05-14T17:27:27.476Z,24.83
2018-05-14T17:29:55.313Z,24.57
2018-05-14T17:32:22.914Z,24.48
2018-05-14T17:34:50.517Z,24.36
2018-05-14T17:37:18.150Z,24.26
2018-05-14T17:39:45.742Z,24.12
2018-05-14T17:42:13.381Z,24.07
2018-05-14T17:44:41.058Z,23.98
2018-05-14T17:47:08.689Z,23.93
2018-05-14T17:49:36.285Z,23.86
2018-05-14T17:52:03.980Z,23.76
2018-05-14T17:54:31.594Z,23.70
2018-05-14T17:56:59.186Z,23.66
2018-05-14T17:59:26.813Z,23.64
2018-05-14T18:01:54.424Z,23.57
2018-05-14T18:04:22.090Z,23.56
2018-05-14T18:06:49.707Z,23.53
2018-05-14T18:09:17.307Z,23.49
2018-05-14T18:11:44.952Z,23.43
2018-05-14T18:14:12.554Z,23.37
2018-05-14T18:16:40.170Z,23.32
2018-05-14T18:19:07.789Z,23.33
2018-05-14T18:21:38.459Z,23.29
2018-05-14T18:24:06.109Z,23.16
2018-05-14T18:26:39.266Z,23.20
2018-05-14T18:29:09.427Z,23.12
2018-05-14T18:31:42.581Z,23.02
2018-05-14T18:34:10.199Z,22.87
2018-05-14T18:36:37.811Z,22.79
2018-05-14T18:39:06.309Z,22.68
2018-05-14T18:41:33.910Z,22.66
2018-05-14T18:44:01.516Z,22.58
2018-05-14T18:46:29.156Z,22.55
2018-05-14T18:48:56.753Z,22.58
2018-05-14T18:51:24.392Z,22.56
2018-05-14T18:53:52.610Z,22.27
2018-05-14T18:56:20.214Z,22.05
2018-05-14T18:58:47.864Z,21.91
2018-05-14T19:01:15.528Z,21.85
2018-05-14T19:03:43.142Z,21.66
2018-05-14T19:06:10.739Z,21.64
2018-05-14T19:08:38.363Z,21.60
2018-05-14T19:11:11.684Z,21.62
2018-05-14T19:13:39.343Z,21.58
2018-05-14T19:16:12.645Z,21.54
2018-05-14T19:18:40.309Z,21.51
2018-05-14T19:21:07.898Z,21.52
2018-05-14T19:23:40.947Z,21.51
2018-05-14T19:26:08.542Z,21.51
2018-05-14T19:28:41.736Z,21.48
2018-05-14T19:31:09.336Z,21.47
2018-05-14T19:33:42.447Z,21.38
2018-05-14T19:36:10.154Z,21.21
2018-05-14T19:38:37.689Z,21.19
2018-05-14T19:41:05.294Z,21.09
2018-05-14T19:43:32.929Z,21.04
2018-05-14T19:46:00.529Z,21.09
2018-05-14T19:48:28.191Z,21.00
2018-05-14T19:50:55.813Z,20.93
2018-05-14T19:53:23.445Z,20.98
2018-05-14T19:55:51.030Z,21.03
2018-05-14T19:58:18.663Z,21.07
2018-05-14T20:00:46.268Z,21.04
2018-05-14T20:03:13.870Z,21.00
2018-05-14T20:05:41.504Z,21.00
2018-05-14T20:08:09.127Z,20.93
2018-05-14T20:10:36.754Z,20.92
2018-05-14T20:13:04.361Z,20.89
2018-05-14T20:15:32.033Z,20.87
2018-05-14T20:17:59.628Z,20.82
2018-05-14T20:20:27.257Z,20.79
2018-05-14T20:22:54.857Z,20.71
2018-05-14T20:25:22.786Z,20.63
2018-05-14T20:27:50.396Z,20.59
2018-05-14T20:30:17.991Z,20.59
2018-05-14T20:32:45.610Z,20.56
2018-05-14T20:35:13.227Z,20.51
2018-05-14T20:37:40.842Z,20.38
2018-05-14T20:40:08.460Z,20.29
2018-05-14T20:42:36.080Z,20.18
2018-05-14T20:45:03.689Z,20.18
2018-05-14T20:47:31.649Z,20.11
2018-05-14T20:49:59.478Z,20.03
2018-05-14T20:52:27.073Z,20.05
2018-05-14T20:54:54.686Z,20.01
2018-05-14T20:57:22.276Z,19.98
2018-05-14T20:59:49.990Z,19.96
2018-05-14T21:02:17.523Z,19.91
2018-05-14T21:04:45.130Z,19.92
2018-05-14T21:07:12.755Z,19.78
2018-05-14T21:09:40.380Z,19.77
2018-05-14T21:12:07.977Z,19.75
2018-05-14T21:14:35.577Z,19.57
2018-05-14T21:17:03.187Z,19.48
2018-05-14T21:19:30.789Z,19.45
2018-05-14T21:21:58.413Z,19.43
2018-05-14T21:24:26.013Z,19.42
2018-05-14T21:26:53.661Z,19.39
2018-05-14T21:29:21.266Z,19.33
2018-05-14T21:31:48.881Z,19.30
2018-05-14T21:34:16.489Z,19.21
2018-05-14T21:36:44.076Z,19.18
2018-05-14T21:39:11.954Z,19.20
2018-05-14T21:41:39.555Z,19.12
2018-05-14T21:44:07.148Z,19.08
2018-05-14T21:46:34.774Z,19.05
2018-05-14T21:49:02.369Z,18.99
2018-05-14T21:51:29.994Z,18.98
2018-05-14T21:53:57.594Z,18.91
2018-05-14T21:56:25.576Z,18.94
2018-05-14T21:58:53.169Z,18.99
2018-05-14T22:01:20.766Z,18.98
2018-05-14T22:03:48.393Z,18.90
2018-05-14T22:06:15.978Z,18.90
2018-05-14T22:08:43.598Z,18.75
2018-05-14T22:11:11.198Z,18.72
2018-05-14T22:13:39.119Z,18.44
2018-05-14T22:16:06.717Z,18.40
2018-05-14T22:18:34.317Z,18.40
2018-05-14T22:21:01.938Z,18.43
2018-05-14T22:23:29.526Z,18.39
2018-05-14T22:25:58.247Z,18.39
2018-05-14T22:28:25.850Z,18.25
2018-05-14T22:30:53.472Z,18.23
2018-05-14T22:33:21.095Z,18.18
2018-05-14T22:35:48.717Z,18.14
2018-05-14T22:38:16.336Z,18.06
2018-05-14T22:40:43.953Z,18.08
2018-05-14T22:43:11.585Z,17.97
2018-05-14T22:45:39.181Z,18.00
2018-05-14T22:48:06.775Z,18.01
2018-05-14T22:50:34.404Z,17.89
2018-05-14T22:53:01.996Z,17.92
2018-05-14T22:55:29.635Z,17.85
2018-05-14T22:57:57.319Z,17.87
2018-05-14T23:00:25.498Z,17.85
2018-05-14T23:02:53.092Z,17.78
2018-05-14T23:05:20.695Z,17.82
2018-05-14T23:07:48.318Z,17.74
2018-05-14T23:10:15.912Z,17.73
2018-05-14T23:12:43.534Z,17.57
2018-05-14T23:15:11.122Z,17.60
2018-05-14T23:17:38.991Z,17.50
2018-05-14T23:20:06.579Z,17.40
2018-05-14T23:22:41.887Z,17.34
2018-05-14T23:25:09.485Z,17.34
2018-05-14T23:27:37.091Z,17.24
2018-05-14T23:30:04.709Z,17.22
2018-05-14T23:32:32.298Z,17.22
2018-05-14T23:34:59.913Z,17.20
2018-05-14T23:37:27.515Z,17.08
2018-05-14T23:39:55.128Z,17.07
2018-05-14T23:42:22.716Z,17.15
2018-05-14T23:44:50.365Z,17.09
2018-05-14T23:47:18.102Z,17.05
2018-05-14T23:49:45.693Z,17.09
2018-05-14T23:52:13.310Z,17.07
2018-05-14T23:54:40.907Z,17.05
2018-05-14T23:57:08.524Z,17.09
2018-05-14T23:59:36.117Z,16.99
